Details From EBBR - Brussels Airport
To VDPP - Phnom Penh Intl
Flight Number -
Tags Generated
Created
Modified
Stats Distance 5,256 nm / 9,734 km
Max Altitude 0 ft / 0 m
Waypoints 14
Social Downloads 1
Likes 0
Share VATSIM

Download

Looking for another format? Having issues loading an existing format? Contact us
Advertisement - Login to hide

Notes

Generated

Route

EBBR BOKSO BAREP BULEP TIRAS ROGLA BADAS ENNB OSH SCH PSL33 HAPPY PNH VDPP

ID Type Via Altitude Latitude Longitude Leg Dist Tot Dist Heading (true) Name
O EBBR APT - 0 ft / 0 m 50.88681˚ 4.49135˚ - 0 nm - -
BOKSO FIX - 0 ft / 0 m 51.79667˚ 10.65889˚ 237 nm 237 nm 74° / 79° -
BAREP FIX - 0 ft / 0 m 52.27111˚ 15.56444˚ 183 nm 421 nm 79° / 83° -
BULEP FIX - 0 ft / 0 m 52.77111˚ 22.41889˚ 252 nm 673 nm 80° / 86° -
TIRAS FIX - 0 ft / 0 m 52.34984˚ 33.30818˚ 397 nm 1071 nm 89° / 98° -
ROGLA FIX - 0 ft / 0 m 51.49000˚ 39.59167˚ 238 nm 1309 nm 100° / 105° -
BADAS FIX - 0 ft / 0 m 44.37333˚ 64.61500˚ 1086 nm 2396 nm 103° / 122° -
ENNB FIX - 0 ft / 0 m 42.37763˚ 69.41687˚ 241 nm 2638 nm 118° / 121° -
OSH FIX - 0 ft / 0 m 40.63667˚ 72.74333˚ 182 nm 2820 nm 124° / 126° -
SCH VOR - 0 ft / 0 m 38.42833˚ 77.24000˚ 246 nm 3067 nm 121° / 124° SHACHE VOR-DME
PSL33 FIX - 0 ft / 0 m 17.14329˚ 100.09363˚ 1752 nm 4820 nm 130° / 141° -
HAPPY FIX - 0 ft / 0 m 14.64629˚ 102.24744˚ 194 nm 5015 nm 140° / 141° -
PNH VOR - 0 ft / 0 m 11.54667˚ 104.84167˚ 240 nm 5255 nm 141° / 141° PHNOM PENH VOR-DME
O VDPP APT - 0 ft / 0 m 11.53713˚ 104.83433˚ 0 nm 5256 nm 217° / 217° -

Altitude Profile

Advertisement - Login to hide

Weather


0- 5 10 15 20 25 30 35+ Temperature / ° C

Clouds and Precipitation
Forecast for 2017-12-11 06:00 UTC. Updated an hour ago

Ground ~20,000 ft ~40,000 ft Winds

EBBR

Details ICAO EBBR (BRU)
Name Brussels Airport
Region Belgium
Timezone Europe/Brussels (UTC+1.0)
Stats Elevation 184 ft / 56 m (AMSL)
Location 50.899948° 4.492814°
Runways 3
Magnetic Variation 1.122° E

METAR

EBBR 110550Z 08010KT 9999 -RA FEW008 BKN016 02/00 Q0980 NOSIG

Decode

TAF

TAF TAF EBBR 110520Z 1106/1212 07012KT 9999 SCT016 BECMG 1106/1108 BKN012 PROB40 TEMPO 1107/1110 2800 RA RADZ BKN006 PROB40 TEMPO 1110/1111 0800 SN SNRA BKN004 PROB40 TEMPO 1111/1114 3000 RA RADZ BKN007 BECMG 1114/1116 SCT018 PROB30 TEMPO 1114/1120 3400 SHRA SCT008 BKN014TCU BECMG 1116/1118 18006KT BECMG 1119/1121 35014KT PROB30 TEMPO 1120/1212 1800 SHRASN BKN005 SCT012TCU BECMG 1203/1206 23008KT

Decode

Departure Runways

ID Width Length Bearing (true) Bearing (mag) Surface Threshold Offset Overrun Length
02 164 ft / 50 m 9,896 ft / 3,016 m 14.41° 13.29° Asphalt 249 ft / 76 m 0 ft / 0 m
07L 148 ft / 45 m 12,106 ft / 3,690 m 65.16° 64.04° Asphalt 801 ft / 244 m 0 ft / 0 m
07R 148 ft / 45 m 10,703 ft / 3,262 m 69.90° 68.78° Asphalt 499 ft / 152 m 0 ft / 0 m
20 164 ft / 50 m 9,896 ft / 3,016 m 194.42° 193.30° Asphalt 751 ft / 229 m 0 ft / 0 m
25L 148 ft / 45 m 10,703 ft / 3,262 m 249.93° 248.81° Asphalt 499 ft / 152 m 0 ft / 0 m
25R 148 ft / 45 m 12,106 ft / 3,690 m 245.20° 244.08° Asphalt 801 ft / 244 m 0 ft / 0 m

VDPP

Details ICAO VDPP (PNH)
Name Phnom Penh Intl
Region Cambodia
Timezone Asia/Phnom_Penh (UTC+7.0)
Stats Elevation 40 ft / 12 m (AMSL)
Location 11.546542° 104.844142°
Runways 1
Magnetic Variation 0.493° W

METAR

VDPP 110530Z 09006KT 050V120 CAVOK 30/19 Q1010

Decode

TAF

TAF VDPP 110500Z 1106/1124 05006KT 9999 SCT017= TAF VDSR 110500Z 1106/1124 08005KT 9999 SCT017

Decode

Destination Runways

ID Width Length Bearing (true) Bearing (mag) Surface Threshold Offset Overrun Length
05 144 ft / 44 m 9,815 ft / 2,992 m 45.61° 46.10° Asphalt 400 ft / 122 m 0 ft / 0 m
23 144 ft / 44 m 9,815 ft / 2,992 m 225.61° 226.10° Asphalt 492 ft / 150 m 0 ft / 0 m

Approach Navaids

Runway Type Ident Frequency Range Bearing (true) Bearing (mag) Slope Elevation
23 Localiser IPNP 109.70 MHz 18 nm / 33 km 225.62° 226.11° - 40 ft / 12 m (AMSL)
23 Glidescope IPNP 109.70 MHz 10 nm / 19 km 225.61° 226.10° 3.00° 37 ft / 11 m (AMSL)